sensor_id;sensor_type;location;lat;lon;timestamp;temperature;humidity
71801;HTU21D;59647;55.838;37.292;2023-01-15T00:00:04;0.95;90.25
71801;HTU21D;59647;55.838;37.292;2023-01-15T00:02:30;0.95;90.66
71801;HTU21D;59647;55.838;37.292;2023-01-15T00:04:56;0.95;90.42
71801;HTU21D;59647;55.838;37.292;2023-01-15T00:07:22;0.95;90.67
71801;HTU21D;59647;55.838;37.292;2023-01-15T00:09:48;0.94;90.32
71801;HTU21D;59647;55.838;37.292;2023-01-15T00:12:14;0.94;90.55
71801;HTU21D;59647;55.838;37.292;2023-01-15T00:14:39;0.93;90.19
71801;HTU21D;59647;55.838;37.292;2023-01-15T00:17:07;0.95;90.49
71801;HTU21D;59647;55.838;37.292;2023-01-15T00:19:33;0.95;90.57
71801;HTU21D;59647;55.838;37.292;2023-01-15T00:21:58;1.01;90.60
71801;HTU21D;59647;55.838;37.292;2023-01-15T00:24:24;0.98;89.76
71801;HTU21D;59647;55.838;37.292;2023-01-15T00:27:09;0.95;90.41
71801;HTU21D;59647;55.838;37.292;2023-01-15T00:29:53;0.90;90.40
71801;HTU21D;59647;55.838;37.292;2023-01-15T00:32:19;0.94;90.54
71801;HTU21D;59647;55.838;37.292;2023-01-15T00:38:45;0.86;90.14
71801;HTU21D;59647;55.838;37.292;2023-01-15T00:41:11;0.83;90.43
71801;HTU21D;59647;55.838;37.292;2023-01-15T00:43:37;0.86;90.53
71801;HTU21D;59647;55.838;37.292;2023-01-15T00:46:03;0.83;90.15
71801;HTU21D;59647;55.838;37.292;2023-01-15T00:48:30;0.82;90.63
71801;HTU21D;59647;55.838;37.292;2023-01-15T00:50:56;0.81;90.27
71801;HTU21D;59647;55.838;37.292;2023-01-15T00:53:21;0.86;90.57
71801;HTU21D;59647;55.838;37.292;2023-01-15T00:55:47;0.87;90.46
71801;HTU21D;59647;55.838;37.292;2023-01-15T00:58:13;0.86;90.18
71801;HTU21D;59647;55.838;37.292;2023-01-15T01:00:38;0.84;90.45
71801;HTU21D;59647;55.838;37.292;2023-01-15T01:03:04;0.87;90.58
71801;HTU21D;59647;55.838;37.292;2023-01-15T01:05:30;0.89;90.57
71801;HTU21D;59647;55.838;37.292;2023-01-15T01:07:56;0.89;90.16
71801;HTU21D;59647;55.838;37.292;2023-01-15T01:10:24;0.86;90.21
71801;HTU21D;59647;55.838;37.292;2023-01-15T01:12:49;0.84;90.33
71801;HTU21D;59647;55.838;37.292;2023-01-15T01:15:20;0.84;90.50
71801;HTU21D;59647;55.838;37.292;2023-01-15T01:17:46;0.83;90.24
71801;HTU21D;59647;55.838;37.292;2023-01-15T01:20:13;0.82;90.08
71801;HTU21D;59647;55.838;37.292;2023-01-15T01:22:39;0.87;90.30
71801;HTU21D;59647;55.838;37.292;2023-01-15T01:25:05;0.78;89.87
71801;HTU21D;59647;55.838;37.292;2023-01-15T01:27:31;0.77;90.26
71801;HTU21D;59647;55.838;37.292;2023-01-15T01:29:57;0.81;90.34
71801;HTU21D;59647;55.838;37.292;2023-01-15T01:32:23;0.84;90.43
71801;HTU21D;59647;55.838;37.292;2023-01-15T01:34:48;0.80;89.71
71801;HTU21D;59647;55.838;37.292;2023-01-15T01:37:14;0.76;90.12
71801;HTU21D;59647;55.838;37.292;2023-01-15T01:39:39;0.78;90.37
71801;HTU21D;59647;55.838;37.292;2023-01-15T01:42:12;0.82;90.56
71801;HTU21D;59647;55.838;37.292;2023-01-15T01:47:06;0.88;90.30
71801;HTU21D;59647;55.838;37.292;2023-01-15T01:49:32;0.89;90.02
71801;HTU21D;59647;55.838;37.292;2023-01-15T01:52:01;0.87;89.52
71801;HTU21D;59647;55.838;37.292;2023-01-15T01:54:27;0.81;89.66
71801;HTU21D;59647;55.838;37.292;2023-01-15T01:56:54;0.79;90.16
71801;HTU21D;59647;55.838;37.292;2023-01-15T01:59:20;0.81;90.23
71801;HTU21D;59647;55.838;37.292;2023-01-15T02:01:47;0.81;90.37
71801;HTU21D;59647;55.838;37.292;2023-01-15T02:04:13;0.80;90.07
71801;HTU21D;59647;55.838;37.292;2023-01-15T02:06:40;0.78;90.27
71801;HTU21D;59647;55.838;37.292;2023-01-15T02:09:06;0.76;90.32
71801;HTU21D;59647;55.838;37.292;2023-01-15T02:11:32;0.77;90.37
71801;HTU21D;59647;55.838;37.292;2023-01-15T02:14:02;0.75;90.24
71801;HTU21D;59647;55.838;37.292;2023-01-15T02:16:39;0.76;90.43
71801;HTU21D;59647;55.838;37.292;2023-01-15T02:19:14;0.80;90.58
71801;HTU21D;59647;55.838;37.292;2023-01-15T02:24:08;0.79;90.21
71801;HTU21D;59647;55.838;37.292;2023-01-15T02:29:18;0.81;90.24
71801;HTU21D;59647;55.838;37.292;2023-01-15T02:31:48;0.83;90.31
71801;HTU21D;59647;55.838;37.292;2023-01-15T02:36:43;0.88;90.32
71801;HTU21D;59647;55.838;37.292;2023-01-15T02:39:19;0.88;90.02
71801;HTU21D;59647;55.838;37.292;2023-01-15T02:41:47;0.79;89.68
71801;HTU21D;59647;55.838;37.292;2023-01-15T02:44:17;0.77;90.31
71801;HTU21D;59647;55.838;37.292;2023-01-15T02:46:43;0.78;90.44
71801;HTU21D;59647;55.838;37.292;2023-01-15T02:49:11;0.82;90.36
71801;HTU21D;59647;55.838;37.292;2023-01-15T02:51:48;0.83;90.06
71801;HTU21D;59647;55.838;37.292;2023-01-15T02:54:19;0.83;89.86
71801;HTU21D;59647;55.838;37.292;2023-01-15T02:56:46;0.84;90.33
71801;HTU21D;59647;55.838;37.292;2023-01-15T02:59:17;0.87;90.02
71801;HTU21D;59647;55.838;37.292;2023-01-15T03:01:56;0.87;89.95
71801;HTU21D;59647;55.838;37.292;2023-01-15T03:04:27;0.86;90.01
71801;HTU21D;59647;55.838;37.292;2023-01-15T03:09:48;0.91;90.18
71801;HTU21D;59647;55.838;37.292;2023-01-15T03:15:06;0.96;90.02
71801;HTU21D;59647;55.838;37.292;2023-01-15T03:17:36;0.91;89.65
71801;HTU21D;59647;55.838;37.292;2023-01-15T03:20:15;0.84;89.98
71801;HTU21D;59647;55.838;37.292;2023-01-15T03:22:43;0.83;90.34
71801;HTU21D;59647;55.838;37.292;2023-01-15T03:25:18;0.76;90.91
71801;HTU21D;59647;55.838;37.292;2023-01-15T03:27:49;0.74;90.92
71801;HTU21D;59647;55.838;37.292;2023-01-15T03:30:18;0.75;91.20
71801;HTU21D;59647;55.838;37.292;2023-01-15T03:32:44;0.76;91.25
71801;HTU21D;59647;55.838;37.292;2023-01-15T03:37:55;0.72;91.80
71801;HTU21D;59647;55.838;37.292;2023-01-15T03:40:22;0.68;92.52
71801;HTU21D;59647;55.838;37.292;2023-01-15T03:42:49;0.73;91.98
71801;HTU21D;59647;55.838;37.292;2023-01-15T03:45:37;0.77;92.46
71801;HTU21D;59647;55.838;37.292;2023-01-15T03:48:10;0.76;92.63
71801;HTU21D;59647;55.838;37.292;2023-01-15T03:55:35;0.67;93.27
71801;HTU21D;59647;55.838;37.292;2023-01-15T04:00:51;0.78;92.69
71801;HTU21D;59647;55.838;37.292;2023-01-15T04:03:21;0.79;93.25
71801;HTU21D;59647;55.838;37.292;2023-01-15T04:05:47;0.77;93.05
71801;HTU21D;59647;55.838;37.292;2023-01-15T04:08:16;0.77;92.79
71801;HTU21D;59647;55.838;37.292;2023-01-15T04:10:51;0.79;92.79
71801;HTU21D;59647;55.838;37.292;2023-01-15T04:13:18;0.81;92.62
71801;HTU21D;59647;55.838;37.292;2023-01-15T04:15:44;0.82;92.48
71801;HTU21D;59647;55.838;37.292;2023-01-15T04:18:13;0.86;92.69
71801;HTU21D;59647;55.838;37.292;2023-01-15T04:20:40;0.88;92.54
71801;HTU21D;59647;55.838;37.292;2023-01-15T04:23:06;0.89;92.76
71801;HTU21D;59647;55.838;37.292;2023-01-15T04:25:32;0.87;92.59
71801;HTU21D;59647;55.838;37.292;2023-01-15T04:27:58;0.88;92.46
71801;HTU21D;59647;55.838;37.292;2023-01-15T04:30:23;0.87;92.97
71801;HTU21D;59647;55.838;37.292;2023-01-15T04:32:49;0.80;93.73
71801;HTU21D;59647;55.838;37.292;2023-01-15T04:35:16;0.78;93.20
71801;HTU21D;59647;55.838;37.292;2023-01-15T04:37:41;0.81;92.95
71801;HTU21D;59647;55.838;37.292;2023-01-15T04:40:07;0.81;92.92
71801;HTU21D;59647;55.838;37.292;2023-01-15T04:42:33;0.86;93.40
71801;HTU21D;59647;55.838;37.292;2023-01-15T04:45:17;0.86;93.47
71801;HTU21D;59647;55.838;37.292;2023-01-15T04:47:43;0.83;93.14
71801;HTU21D;59647;55.838;37.292;2023-01-15T04:50:09;0.87;93.00
71801;HTU21D;59647;55.838;37.292;2023-01-15T04:52:35;0.84;93.43
71801;HTU21D;59647;55.838;37.292;2023-01-15T04:55:01;0.80;93.67
71801;HTU21D;59647;55.838;37.292;2023-01-15T04:57:28;0.81;93.61
71801;HTU21D;59647;55.838;37.292;2023-01-15T04:59:53;0.83;93.40
71801;HTU21D;59647;55.838;37.292;2023-01-15T05:02:19;0.89;93.19
71801;HTU21D;59647;55.838;37.292;2023-01-15T05:04:45;0.90;92.87
71801;HTU21D;59647;55.838;37.292;2023-01-15T05:07:10;0.87;93.59
71801;HTU21D;59647;55.838;37.292;2023-01-15T05:09:36;0.80;93.55
71801;HTU21D;59647;55.838;37.292;2023-01-15T05:12:02;0.81;93.45
71801;HTU21D;59647;55.838;37.292;2023-01-15T05:14:27;0.80;93.89
71801;HTU21D;59647;55.838;37.292;2023-01-15T05:16:53;0.79;93.69
71801;HTU21D;59647;55.838;37.292;2023-01-15T05:19:19;0.79;93.72
71801;HTU21D;59647;55.838;37.292;2023-01-15T05:21:45;0.78;94.26
71801;HTU21D;59647;55.838;37.292;2023-01-15T05:24:14;0.81;93.92
71801;HTU21D;59647;55.838;37.292;2023-01-15T05:26:41;0.80;93.78
71801;HTU21D;59647;55.838;37.292;2023-01-15T05:29:06;0.83;93.72
71801;HTU21D;59647;55.838;37.292;2023-01-15T05:31:32;0.86;93.76
71801;HTU21D;59647;55.838;37.292;2023-01-15T05:33:58;0.84;93.60
71801;HTU21D;59647;55.838;37.292;2023-01-15T05:36:25;0.86;93.76
71801;HTU21D;59647;55.838;37.292;2023-01-15T05:38:50;0.88;93.50
71801;HTU21D;59647;55.838;37.292;2023-01-15T05:41:18;0.89;93.24
71801;HTU21D;59647;55.838;37.292;2023-01-15T05:44:04;0.90;93.23
71801;HTU21D;59647;55.838;37.292;2023-01-15T05:46:30;0.88;93.89
71801;HTU21D;59647;55.838;37.292;2023-01-15T05:49:03;0.89;93.25
71801;HTU21D;59647;55.838;37.292;2023-01-15T05:51:29;0.91;93.60
71801;HTU21D;59647;55.838;37.292;2023-01-15T05:53:56;0.92;93.46
71801;HTU21D;59647;55.838;37.292;2023-01-15T05:56:21;0.92;93.16
71801;HTU21D;59647;55.838;37.292;2023-01-15T05:58:47;0.90;93.56
71801;HTU21D;59647;55.838;37.292;2023-01-15T06:01:13;0.86;93.85
71801;HTU21D;59647;55.838;37.292;2023-01-15T06:03:38;0.83;93.78
71801;HTU21D;59647;55.838;37.292;2023-01-15T06:06:06;0.87;93.53
71801;HTU21D;59647;55.838;37.292;2023-01-15T06:08:31;0.84;94.04
71801;HTU21D;59647;55.838;37.292;2023-01-15T06:10:57;0.79;94.13
71801;HTU21D;59647;55.838;37.292;2023-01-15T06:13:23;0.76;94.34
71801;HTU21D;59647;55.838;37.292;2023-01-15T06:15:49;0.78;94.28
71801;HTU21D;59647;55.838;37.292;2023-01-15T06:18:14;0.78;94.34
71801;HTU21D;59647;55.838;37.292;2023-01-15T06:20:40;0.78;94.33
71801;HTU21D;59647;55.838;37.292;2023-01-15T06:23:07;0.78;94.46
71801;HTU21D;59647;55.838;37.292;2023-01-15T06:25:35;0.77;94.26
71801;HTU21D;59647;55.838;37.292;2023-01-15T06:28:05;0.83;93.89
71801;HTU21D;59647;55.838;37.292;2023-01-15T06:30:31;0.86;93.91
71801;HTU21D;59647;55.838;37.292;2023-01-15T06:32:56;0.83;93.72
71801;HTU21D;59647;55.838;37.292;2023-01-15T06:35:22;0.87;93.74
71801;HTU21D;59647;55.838;37.292;2023-01-15T06:37:48;0.89;93.49
71801;HTU21D;59647;55.838;37.292;2023-01-15T06:40:14;0.93;93.49
71801;HTU21D;59647;55.838;37.292;2023-01-15T06:42:39;0.95;93.32
71801;HTU21D;59647;55.838;37.292;2023-01-15T06:45:23;0.96;93.25
71801;HTU21D;59647;55.838;37.292;2023-01-15T06:48:07;0.96;93.28
71801;HTU21D;59647;55.838;37.292;2023-01-15T06:50:33;0.95;93.35
71801;HTU21D;59647;55.838;37.292;2023-01-15T06:52:59;0.94;93.33
71801;HTU21D;59647;55.838;37.292;2023-01-15T06:55:25;0.96;93.17
71801;HTU21D;59647;55.838;37.292;2023-01-15T06:57:50;0.99;93.23
71801;HTU21D;59647;55.838;37.292;2023-01-15T07:00:16;0.99;93.08
71801;HTU21D;59647;55.838;37.292;2023-01-15T07:02:42;0.94;93.08
71801;HTU21D;59647;55.838;37.292;2023-01-15T07:05:07;0.91;93.43
71801;HTU21D;59647;55.838;37.292;2023-01-15T07:07:33;0.93;93.51
71801;HTU21D;59647;55.838;37.292;2023-01-15T07:09:59;0.96;93.20
71801;HTU21D;59647;55.838;37.292;2023-01-15T07:12:24;0.95;92.75
71801;HTU21D;59647;55.838;37.292;2023-01-15T07:14:50;0.96;92.85
71801;HTU21D;59647;55.838;37.292;2023-01-15T07:17:16;0.97;92.84
71801;HTU21D;59647;55.838;37.292;2023-01-15T07:19:41;1.01;92.81
71801;HTU21D;59647;55.838;37.292;2023-01-15T07:22:07;1.01;92.56
71801;HTU21D;59647;55.838;37.292;2023-01-15T07:24:33;1.04;92.43
71801;HTU21D;59647;55.838;37.292;2023-01-15T07:26:59;1.05;92.40
71801;HTU21D;59647;55.838;37.292;2023-01-15T07:29:24;1.07;92.37
71801;HTU21D;59647;55.838;37.292;2023-01-15T07:31:50;1.08;92.07
71801;HTU21D;59647;55.838;37.292;2023-01-15T07:34:16;1.03;92.11
71801;HTU21D;59647;55.838;37.292;2023-01-15T07:36:42;1.02;92.03
71801;HTU21D;59647;55.838;37.292;2023-01-15T07:39:08;1.04;92.23
71801;HTU21D;59647;55.838;37.292;2023-01-15T07:41:34;1.08;92.24
71801;HTU21D;59647;55.838;37.292;2023-01-15T07:44:19;1.10;91.92
71801;HTU21D;59647;55.838;37.292;2023-01-15T07:47:07;1.10;91.92
71801;HTU21D;59647;55.838;37.292;2023-01-15T07:49:55;1.10;91.79
71801;HTU21D;59647;55.838;37.292;2023-01-15T07:52:21;1.11;92.09
71801;HTU21D;59647;55.838;37.292;2023-01-15T07:54:48;1.16;91.95
71801;HTU21D;59647;55.838;37.292;2023-01-15T07:57:14;1.18;91.80
71801;HTU21D;59647;55.838;37.292;2023-01-15T07:59:41;1.21;91.52
71801;HTU21D;59647;55.838;37.292;2023-01-15T08:02:06;1.19;91.16
71801;HTU21D;59647;55.838;37.292;2023-01-15T08:04:32;1.18;91.20
71801;HTU21D;59647;55.838;37.292;2023-01-15T08:06:58;1.22;91.53
71801;HTU21D;59647;55.838;37.292;2023-01-15T08:09:25;1.21;90.89
71801;HTU21D;59647;55.838;37.292;2023-01-15T08:11:51;1.18;91.27
71801;HTU21D;59647;55.838;37.292;2023-01-15T08:14:35;1.19;91.13
71801;HTU21D;59647;55.838;37.292;2023-01-15T08:17:19;1.24;91.45
71801;HTU21D;59647;55.838;37.292;2023-01-15T08:19:45;1.25;91.05
71801;HTU21D;59647;55.838;37.292;2023-01-15T08:22:10;1.24;91.02
71801;HTU21D;59647;55.838;37.292;2023-01-15T08:24:36;1.23;90.78
71801;HTU21D;59647;55.838;37.292;2023-01-15T08:27:02;1.24;90.92
71801;HTU21D;59647;55.838;37.292;2023-01-15T08:29:28;1.28;90.91
71801;HTU21D;59647;55.838;37.292;2023-01-15T08:31:53;1.27;90.85
71801;HTU21D;59647;55.838;37.292;2023-01-15T08:34:19;1.24;90.36
71801;HTU21D;59647;55.838;37.292;2023-01-15T08:36:45;1.22;90.36
71801;HTU21D;59647;55.838;37.292;2023-01-15T08:39:10;1.25;90.86
71801;HTU21D;59647;55.838;37.292;2023-01-15T08:41:36;1.18;90.21
71801;HTU21D;59647;55.838;37.292;2023-01-15T08:44:02;1.22;90.84
71801;HTU21D;59647;55.838;37.292;2023-01-15T08:46:27;1.22;89.79
71801;HTU21D;59647;55.838;37.292;2023-01-15T08:48:53;1.22;90.18
71801;HTU21D;59647;55.838;37.292;2023-01-15T08:51:19;1.20;90.49
71801;HTU21D;59647;55.838;37.292;2023-01-15T08:53:44;1.23;90.67
71801;HTU21D;59647;55.838;37.292;2023-01-15T08:56:14;1.23;90.52
71801;HTU21D;59647;55.838;37.292;2023-01-15T08:58:39;1.22;90.28
71801;HTU21D;59647;55.838;37.292;2023-01-15T09:01:06;1.23;90.37
71801;HTU21D;59647;55.838;37.292;2023-01-15T09:03:32;1.24;90.30
71801;HTU21D;59647;55.838;37.292;2023-01-15T09:05:58;1.27;90.36
71801;HTU21D;59647;55.838;37.292;2023-01-15T09:08:24;1.28;90.30
71801;HTU21D;59647;55.838;37.292;2023-01-15T09:10:50;1.29;90.34
71801;HTU21D;59647;55.838;37.292;2023-01-15T09:13:16;1.25;89.73
71801;HTU21D;59647;55.838;37.292;2023-01-15T09:15:42;1.24;90.13
71801;HTU21D;59647;55.838;37.292;2023-01-15T09:18:07;1.22;90.27
71801;HTU21D;59647;55.838;37.292;2023-01-15T09:20:35;1.25;90.41
71801;HTU21D;59647;55.838;37.292;2023-01-15T09:23:01;1.28;89.80
71801;HTU21D;59647;55.838;37.292;2023-01-15T09:25:26;1.29;89.92
71801;HTU21D;59647;55.838;37.292;2023-01-15T09:27:54;1.26;89.88
71801;HTU21D;59647;55.838;37.292;2023-01-15T09:30:20;1.23;89.95
71801;HTU21D;59647;55.838;37.292;2023-01-15T09:32:46;1.26;90.02
71801;HTU21D;59647;55.838;37.292;2023-01-15T09:35:12;1.22;90.00
71801;HTU21D;59647;55.838;37.292;2023-01-15T09:37:38;1.24;89.71
71801;HTU21D;59647;55.838;37.292;2023-01-15T09:40:04;1.29;90.34
71801;HTU21D;59647;55.838;37.292;2023-01-15T09:42:35;1.28;89.62
71801;HTU21D;59647;55.838;37.292;2023-01-15T09:47:50;1.33;89.51
71801;HTU21D;59647;55.838;37.292;2023-01-15T09:55:39;1.33;89.25
71801;HTU21D;59647;55.838;37.292;2023-01-15T09:58:07;1.26;88.60
71801;HTU21D;59647;55.838;37.292;2023-01-15T10:00:37;1.33;89.79
71801;HTU21D;59647;55.838;37.292;2023-01-15T10:08:19;1.40;88.74
71801;HTU21D;59647;55.838;37.292;2023-01-15T10:10:45;1.42;89.28
71801;HTU21D;59647;55.838;37.292;2023-01-15T10:15:46;1.48;89.12
71801;HTU21D;59647;55.838;37.292;2023-01-15T10:18:12;1.50;89.14
71801;HTU21D;59647;55.838;37.292;2023-01-15T10:20:49;1.46;88.35
71801;HTU21D;59647;55.838;37.292;2023-01-15T10:28:50;1.53;88.12
71801;HTU21D;59647;55.838;37.292;2023-01-15T10:31:21;1.52;88.69
71801;HTU21D;59647;55.838;37.292;2023-01-15T10:36:48;1.61;88.80
71801;HTU21D;59647;55.838;37.292;2023-01-15T10:39:18;1.61;88.67
71801;HTU21D;59647;55.838;37.292;2023-01-15T10:41:54;1.62;88.65
71801;HTU21D;59647;55.838;37.292;2023-01-15T10:44:35;1.53;87.81
71801;HTU21D;59647;55.838;37.292;2023-01-15T10:47:06;1.49;87.86
71801;HTU21D;59647;55.838;37.292;2023-01-15T10:49:34;1.54;88.73
71801;HTU21D;59647;55.838;37.292;2023-01-15T10:52:12;1.57;88.39
71801;HTU21D;59647;55.838;37.292;2023-01-15T10:54:43;1.63;88.72
71801;HTU21D;59647;55.838;37.292;2023-01-15T10:57:22;1.58;87.79
71801;HTU21D;59647;55.838;37.292;2023-01-15T11:00:01;1.58;87.83
71801;HTU21D;59647;55.838;37.292;2023-01-15T11:05:33;1.62;88.05
71801;HTU21D;59647;55.838;37.292;2023-01-15T11:08:00;1.62;88.38
71801;HTU21D;59647;55.838;37.292;2023-01-15T11:10:27;1.61;87.83
71801;HTU21D;59647;55.838;37.292;2023-01-15T11:12:53;1.60;87.39
71801;HTU21D;59647;55.838;37.292;2023-01-15T11:15:38;1.61;88.29
71801;HTU21D;59647;55.838;37.292;2023-01-15T11:18:27;1.62;88.68
71801;HTU21D;59647;55.838;37.292;2023-01-15T11:21:15;1.65;87.65
71801;HTU21D;59647;55.838;37.292;2023-01-15T11:23:41;1.65;88.19
71801;HTU21D;59647;55.838;37.292;2023-01-15T11:26:07;1.68;87.78
71801;HTU21D;59647;55.838;37.292;2023-01-15T11:28:37;1.67;87.85
71801;HTU21D;59647;55.838;37.292;2023-01-15T11:31:07;1.70;87.67
71801;HTU21D;59647;55.838;37.292;2023-01-15T11:33:33;1.63;86.82
71801;HTU21D;59647;55.838;37.292;2023-01-15T11:36:22;1.62;87.30
71801;HTU21D;59647;55.838;37.292;2023-01-15T11:38:47;1.65;87.76
71801;HTU21D;59647;55.838;37.292;2023-01-15T11:43:52;1.65;86.48
71801;HTU21D;59647;55.838;37.292;2023-01-15T11:46:36;1.70;87.94
71801;HTU21D;59647;55.838;37.292;2023-01-15T11:49:20;1.72;87.22
71801;HTU21D;59647;55.838;37.292;2023-01-15T11:52:09;1.75;87.51
71801;HTU21D;59647;55.838;37.292;2023-01-15T11:54:36;1.79;87.48
71801;HTU21D;59647;55.838;37.292;2023-01-15T11:57:02;1.80;86.77
71801;HTU21D;59647;55.838;37.292;2023-01-15T11:59:28;1.78;86.09
71801;HTU21D;59647;55.838;37.292;2023-01-15T12:01:55;1.82;87.48
71801;HTU21D;59647;55.838;37.292;2023-01-15T12:04:26;1.84;87.38
71801;HTU21D;59647;55.838;37.292;2023-01-15T12:06:53;1.90;87.53
71801;HTU21D;59647;55.838;37.292;2023-01-15T12:27:32;1.93;86.83
71801;HTU21D;59647;55.838;37.292;2023-01-15T12:30:46;1.94;86.83
71801;HTU21D;59647;55.838;37.292;2023-01-15T12:32:49;1.90;85.76
71801;HTU21D;59647;55.838;37.292;2023-01-15T12:37:44;1.85;84.94
71801;HTU21D;59647;55.838;37.292;2023-01-15T12:42:39;1.85;86.46
71801;HTU21D;59647;55.838;37.292;2023-01-15T12:45:26;1.80;85.77
71801;HTU21D;59647;55.838;37.292;2023-01-15T12:53:13;1.77;84.61
71801;HTU21D;59647;55.838;37.292;2023-01-15T12:58:27;1.75;86.46
71801;HTU21D;59647;55.838;37.292;2023-01-15T13:01:03;1.68;85.93
71801;HTU21D;59647;55.838;37.292;2023-01-15T13:03:33;1.72;86.09
71801;HTU21D;59647;55.838;37.292;2023-01-15T13:06:03;1.69;85.06
71801;HTU21D;59647;55.838;37.292;2023-01-15T13:11:02;1.71;85.99
71801;HTU21D;59647;55.838;37.292;2023-01-15T13:13:35;1.69;86.09
71801;HTU21D;59647;55.838;37.292;2023-01-15T13:18:49;1.78;86.42
71801;HTU21D;59647;55.838;37.292;2023-01-15T13:21:16;1.78;86.71
71801;HTU21D;59647;55.838;37.292;2023-01-15T13:36:44;1.71;86.35
71801;HTU21D;59647;55.838;37.292;2023-01-15T13:39:14;1.72;86.77
71801;HTU21D;59647;55.838;37.292;2023-01-15T13:41:40;1.61;84.78
71801;HTU21D;59647;55.838;37.292;2023-01-15T13:44:27;1.55;86.03
71801;HTU21D;59647;55.838;37.292;2023-01-15T13:47:03;1.63;86.80
71801;HTU21D;59647;55.838;37.292;2023-01-15T13:49:31;1.61;85.71
71801;HTU21D;59647;55.838;37.292;2023-01-15T13:51:59;1.56;85.50
71801;HTU21D;59647;55.838;37.292;2023-01-15T13:54:29;1.55;85.58
71801;HTU21D;59647;55.838;37.292;2023-01-15T13:57:05;1.54;85.87
71801;HTU21D;59647;55.838;37.292;2023-01-15T13:59:41;1.52;85.34
71801;HTU21D;59647;55.838;37.292;2023-01-15T14:02:22;1.53;86.23
71801;HTU21D;59647;55.838;37.292;2023-01-15T14:04:48;1.58;86.32
71801;HTU21D;59647;55.838;37.292;2023-01-15T14:07:21;1.55;85.31
71801;HTU21D;59647;55.838;37.292;2023-01-15T14:09:48;1.56;86.35
71801;HTU21D;59647;55.838;37.292;2023-01-15T14:12:32;1.51;85.35
71801;HTU21D;59647;55.838;37.292;2023-01-15T14:15:15;1.48;85.96
71801;HTU21D;59647;55.838;37.292;2023-01-15T14:23:28;1.51;86.25
71801;HTU21D;59647;55.838;37.292;2023-01-15T14:26:10;1.53;86.42
71801;HTU21D;59647;55.838;37.292;2023-01-15T14:28:43;1.49;84.87
71801;HTU21D;59647;55.838;37.292;2023-01-15T14:36:24;1.43;86.25
71801;HTU21D;59647;55.838;37.292;2023-01-15T14:38:52;1.47;86.40
71801;HTU21D;59647;55.838;37.292;2023-01-15T14:41:26;1.43;85.15
71801;HTU21D;59647;55.838;37.292;2023-01-15T14:43:53;1.39;84.42
71801;HTU21D;59647;55.838;37.292;2023-01-15T14:46:32;1.38;85.84
71801;HTU21D;59647;55.838;37.292;2023-01-15T14:48:59;1.37;85.57
71801;HTU21D;59647;55.838;37.292;2023-01-15T14:54:12;1.39;86.10
71801;HTU21D;59647;55.838;37.292;2023-01-15T14:56:36;1.35;85.90
71801;HTU21D;59647;55.838;37.292;2023-01-15T14:59:19;1.34;85.45
71801;HTU21D;59647;55.838;37.292;2023-01-15T15:01:56;1.24;84.61
71801;HTU21D;59647;55.838;37.292;2023-01-15T15:04:30;1.23;85.32
71801;HTU21D;59647;55.838;37.292;2023-01-15T15:06:58;1.27;86.35
71801;HTU21D;59647;55.838;37.292;2023-01-15T15:09:26;1.29;86.24
71801;HTU21D;59647;55.838;37.292;2023-01-15T15:11:53;1.28;85.97
71801;HTU21D;59647;55.838;37.292;2023-01-15T15:18:43;1.22;85.00
71801;HTU21D;59647;55.838;37.292;2023-01-15T15:21:19;1.17;85.06
71801;HTU21D;59647;55.838;37.292;2023-01-15T15:26:23;1.18;85.63
71801;HTU21D;59647;55.838;37.292;2023-01-15T15:28:58;1.19;85.15
71801;HTU21D;59647;55.838;37.292;2023-01-15T15:31:24;1.19;86.06
71801;HTU21D;59647;55.838;37.292;2023-01-15T15:33:51;1.21;85.38
71801;HTU21D;59647;55.838;37.292;2023-01-15T15:36:18;1.20;85.09
71801;HTU21D;59647;55.838;37.292;2023-01-15T15:38:50;1.18;85.19
71801;HTU21D;59647;55.838;37.292;2023-01-15T15:41:16;1.19;85.63
71801;HTU21D;59647;55.838;37.292;2023-01-15T15:44:02;1.17;84.63
71801;HTU21D;59647;55.838;37.292;2023-01-15T15:46:47;1.17;85.67
71801;HTU21D;59647;55.838;37.292;2023-01-15T15:49:41;1.14;84.91
71801;HTU21D;59647;55.838;37.292;2023-01-15T15:52:17;1.14;85.29
71801;HTU21D;59647;55.838;37.292;2023-01-15T15:54:55;1.13;84.66
71801;HTU21D;59647;55.838;37.292;2023-01-15T15:57:21;1.17;86.06
71801;HTU21D;59647;55.838;37.292;2023-01-15T15:59:47;1.18;85.09
71801;HTU21D;59647;55.838;37.292;2023-01-15T16:02:25;1.07;84.33
71801;HTU21D;59647;55.838;37.292;2023-01-15T16:04:53;1.07;85.33
71801;HTU21D;59647;55.838;37.292;2023-01-15T16:09:59;0.97;84.64
71801;HTU21D;59647;55.838;37.292;2023-01-15T16:12:25;1.02;85.58
71801;HTU21D;59647;55.838;37.292;2023-01-15T16:14:54;1.03;85.32
71801;HTU21D;59647;55.838;37.292;2023-01-15T16:17:19;1.02;84.82
71801;HTU21D;59647;55.838;37.292;2023-01-15T16:19:45;1.05;85.55
71801;HTU21D;59647;55.838;37.292;2023-01-15T16:22:13;1.08;85.46
71801;HTU21D;59647;55.838;37.292;2023-01-15T16:24:39;1.08;85.51
71801;HTU21D;59647;55.838;37.292;2023-01-15T16:27:06;1.06;84.96
71801;HTU21D;59647;55.838;37.292;2023-01-15T16:29:33;1.01;84.40
71801;HTU21D;59647;55.838;37.292;2023-01-15T16:32:00;1.03;85.38
71801;HTU21D;59647;55.838;37.292;2023-01-15T16:34:30;0.98;84.73
71801;HTU21D;59647;55.838;37.292;2023-01-15T16:36:56;1.03;85.81
71801;HTU21D;59647;55.838;37.292;2023-01-15T16:41:48;1.02;84.24
71801;HTU21D;59647;55.838;37.292;2023-01-15T16:44:24;0.94;84.84
71801;HTU21D;59647;55.838;37.292;2023-01-15T16:46:54;0.93;84.79
71801;HTU21D;59647;55.838;37.292;2023-01-15T16:51:47;0.92;84.63
71801;HTU21D;59647;55.838;37.292;2023-01-15T16:56:54;0.87;85.13
71801;HTU21D;59647;55.838;37.292;2023-01-15T17:02:13;0.87;84.81
71801;HTU21D;59647;55.838;37.292;2023-01-15T17:04:38;0.87;85.02
71801;HTU21D;59647;55.838;37.292;2023-01-15T17:07:06;0.90;85.16
71801;HTU21D;59647;55.838;37.292;2023-01-15T17:09:33;0.81;83.68
71801;HTU21D;59647;55.838;37.292;2023-01-15T17:12:05;0.86;85.17
71801;HTU21D;59647;55.838;37.292;2023-01-15T17:14:31;0.89;85.60
71801;HTU21D;59647;55.838;37.292;2023-01-15T17:17:22;0.80;84.82
71801;HTU21D;59647;55.838;37.292;2023-01-15T17:19:49;0.83;85.69
71801;HTU21D;59647;55.838;37.292;2023-01-15T17:22:17;0.83;84.55
71801;HTU21D;59647;55.838;37.292;2023-01-15T17:24:47;0.81;84.97
71801;HTU21D;59647;55.838;37.292;2023-01-15T17:27:13;0.79;84.61
71801;HTU21D;59647;55.838;37.292;2023-01-15T17:29:38;0.72;84.61
71801;HTU21D;59647;55.838;37.292;2023-01-15T17:32:04;0.75;85.65
71801;HTU21D;59647;55.838;37.292;2023-01-15T17:34:30;0.76;85.32
71801;HTU21D;59647;55.838;37.292;2023-01-15T17:36:57;0.81;85.71
71801;HTU21D;59647;55.838;37.292;2023-01-15T17:39:23;0.77;84.82
71801;HTU21D;59647;55.838;37.292;2023-01-15T17:41:49;0.79;85.49
71801;HTU21D;59647;55.838;37.292;2023-01-15T17:44:14;0.79;84.91
71801;HTU21D;59647;55.838;37.292;2023-01-15T17:46:40;0.76;84.82
71801;HTU21D;59647;55.838;37.292;2023-01-15T17:49:05;0.74;84.71